Alkor — DBND — position and weather

sailwx.info

Track history (hours):
 
Tides and Currents Weather Stations Pressure Air Temp Water Temp Dewpoint Dewpoint Depression Visibility Wind Speed Wind Dir Waves Ship Positions

Oceanographic research ship Alkor (Germany)

Ship's website: http://www.briese.de/

Detailed information on ship capabilities available from University of Delaware's Ocean Information Center.

Last reported at 2018-Dec-10 20:00 UTC. Time now 2018-Dec-10 20:51 UTC.
Position N 54°24' E 010°12'.

Length 55 m; draft 4.2 m.

Type: Ship. MMSI: 211216512.

Wind from 300 at 8 knots

Barometer 1010.7 mb
Air temperature 4.9 ° C
Water temperature 8.2 ° C

Date/timePositionNaut miles runAvg speedWind from/ knotsBaromVisibWave heightAir tempDewpointWater temp
2018-Dec-10 20:00N 54°24' E 010°12'0 0.0 300 / 81010.7 4.9 8.2
2018-Dec-10 19:00N 54°24' E 010°12'0 0.0 300 / 71010.1 5.2 8.3
2018-Dec-10 18:00N 54°24' E 010°12'0 0.0 300 / 91009.5 5.4 8.3
2018-Dec-10 17:00N 54°24' E 010°12'0 0.0 290 / 111009.1 5.5 8.3
2018-Dec-10 16:00N 54°24' E 010°12'0 0.0 290 / 111008.7 6.0 8.3
2018-Dec-10 15:00N 54°24' E 010°12'0 0.0 280 / 121008.5 6.2 8.3
2018-Dec-10 14:00N 54°24' E 010°12'0 0.0 270 / 101008.2 5.7 8.4
2018-Dec-10 13:00N 54°24' E 010°12'0 0.0 280 / 111008.2 5.7 8.3
2018-Dec-10 12:00N 54°24' E 010°12'0 0.0 280 / 111008.3 5.2 8.4
2018-Dec-10 11:00N 54°24' E 010°12'0 0.0 280 / 111008.7 6.4 8.4
2018-Dec-10 10:00N 54°24' E 010°12'0 0.0 270 / 131008.9 5.4 8.4
2018-Dec-10 09:00N 54°24' E 010°12'0 0.0 270 / 101008.7 4.9 8.4
2018-Dec-10 08:00N 54°24' E 010°12'0 0.0 290 / 101008.3 4.7 8.4
2018-Dec-10 07:00N 54°24' E 010°12'0 0.0 280 / 131007.6 5.2 8.4
2018-Dec-10 06:00N 54°24' E 010°12'0 0.0 270 / 101007.0 4.9 8.5
2018-Dec-10 05:00N 54°24' E 010°12'0 0.0 280 / 111006.7 5.0 8.5
2018-Dec-10 04:00N 54°24' E 010°12'0 0.0 280 / 101005.8 5.0 8.5
2018-Dec-10 03:00N 54°24' E 010°12'0 0.0 260 / 101005.4 4.7 8.5
2018-Dec-10 02:00N 54°24' E 010°12'0 0.0 290 / 91005.0 5.4 8.6
2018-Dec-10 01:00N 54°24' E 010°12'0 0.0 280 / 111004.0 5.7 8.6
2018-Dec-10 00:00N 54°24' E 010°12'0 0.0 290 / 101003.3 5.7 8.6
2018-Dec-09 23:00N 54°24' E 010°12'0 0.0 280 / 111002.4 5.7 8.6
2018-Dec-09 22:00N 54°24' E 010°12'0 0.0 290 / 101001.6 5.9 8.7
2018-Dec-09 21:00N 54°24' E 010°12'0 0.0 280 / 101000.5 6.2 8.7
2018-Dec-09 20:00N 54°24' E 010°12'0 0.0 290 / 9999.3 6.2 8.7
2018-Dec-09 19:00N 54°24' E 010°12'0 0.0 290 / 9997.7 6.7 8.7
2018-Dec-09 18:00N 54°24' E 010°12'0 0.0 300 / 13995.8 7.2 8.7
2018-Dec-09 17:00N 54°24' E 010°12'0 0.0 290 / 13994.1 7.2 8.8
2018-Dec-09 16:00N 54°24' E 010°12'0 0.0 290 / 12992.8 7.5 8.8
2018-Dec-09 15:00N 54°24' E 010°12'0 0.0 280 / 12991.7 7.5 8.8
2018-Dec-09 14:00N 54°24' E 010°12'0 0.0 280 / 10990.5 7.4 8.8
2018-Dec-09 13:00N 54°24' E 010°12'0 0.0 260 / 12989.3 7.4 8.8
2018-Dec-09 12:00N 54°24' E 010°12'0 0.0 260 / 12988.7 7.4 8.7
2018-Dec-09 11:00N 54°24' E 010°12'0 0.0 250 / 12988.3 8.2 8.7
2018-Dec-09 10:00N 54°24' E 010°12'0 0.0 250 / 10988.1 6.7 8.7
2018-Dec-09 09:00N 54°24' E 010°12'0 0.0 250 / 9987.4 6.9 8.7
2018-Dec-09 08:00N 54°24' E 010°12'0 0.0 250 / 10986.5 6.9 8.7
2018-Dec-09 07:00N 54°24' E 010°12'0 0.0 240 / 10985.6 6.7 8.6
2018-Dec-09 06:00N 54°24' E 010°12'0 0.0 250 / 12984.8 6.7 8.6
2018-Dec-09 05:00N 54°24' E 010°12'0 0.0 250 / 11984.4 6.9 8.6
2018-Dec-09 04:00N 54°24' E 010°12'0 0.0 250 / 11984.1 7.0 8.5
2018-Dec-09 03:00N 54°24' E 010°12'0 0.0 250 / 10983.7 7.0 8.4
2018-Dec-09 02:00N 54°24' E 010°12'0 0.0 250 / 8983.8 6.7 8.4
2018-Dec-09 01:00N 54°24' E 010°12'0 0.0 220 / 12983.8 6.9 8.2
2018-Dec-08 23:00N 54°24' E 010°12'0 0.0 220 / 17985.5 7.7 8.1
2018-Dec-08 22:00N 54°24' E 010°12'0 0.0 220 / 17986.5 7.5 8.1
2018-Dec-08 21:00N 54°24' E 010°12'0 0.0 240 / 17987.5 7.9 8.1
2018-Dec-08 20:00N 54°24' E 010°12'0 0.0 240 / 21988.3 7.7 8.1
2018-Dec-08 19:00N 54°24' E 010°12'0 0.0 240 / 24988.8 8.2 8.1
2018-Dec-08 18:00N 54°24' E 010°12'0 0.0 240 / 19989.1 7.9 8.1
2018-Dec-08 17:00N 54°24' E 010°12'0 0.0 240 / 21989.0 8.2 8.1
2018-Dec-08 16:00N 54°24' E 010°12'0 0.0 240 / 22989.2 8.7 8.1
2018-Dec-08 15:00N 54°24' E 010°12'0 0.0 240 / 23989.2 8.4 8.1
2018-Dec-08 14:00N 54°24' E 010°12'0 0.0 240 / 20989.6 8.4 8.1
2018-Dec-08 13:00N 54°24' E 010°12'0 0.0 230 / 19989.7 8.0 8.0
2018-Dec-08 12:00N 54°24' E 010°12'0 0.0 230 / 21990.1 7.9 8.0
2018-Dec-08 11:00N 54°24' E 010°12'0 0.0 220 / 21990.6 7.0 8.0
2018-Dec-08 10:00N 54°24' E 010°12'0 0.0 230 / 22991.4 7.4 8.0
2018-Dec-08 09:00N 54°24' E 010°12'0 0.0 230 / 19992.2 7.4 8.0
2018-Dec-08 08:00N 54°24' E 010°12'0 0.0 220 / 20992.8 6.7 8.0
2018-Dec-08 07:00N 54°24' E 010°12'0 0.0 220 / 20993.3 6.2 8.0
2018-Dec-08 06:00N 54°24' E 010°12'0 0.0 220 / 20993.5 5.9 8.2
2018-Dec-08 05:00N 54°24' E 010°12'0 0.0 220 / 18994.6 5.7 8.3
2018-Dec-08 04:00N 54°24' E 010°12'0 0.0 230 / 17995.0 5.9 8.5
2018-Dec-08 03:00N 54°24' E 010°12'0 0.0 230 / 17995.4 6.2 8.5
2018-Dec-08 02:00N 54°24' E 010°12'0 0.0 250 / 19995.5 6.2 8.6
2018-Dec-08 01:00N 54°24' E 010°12'0 0.0 240 / 14994.7 7.4 8.6
2018-Dec-08 00:00N 54°24' E 010°12'0 0.0 240 / 12994.2 7.0 8.6
2018-Dec-07 23:00N 54°24' E 010°12'0 0.0 250 / 15993.5 7.4 8.6
2018-Dec-07 22:00N 54°24' E 010°12'0 0.0 260 / 14992.7 7.4 8.5
2018-Dec-07 21:00N 54°24' E 010°12'0 0.0 270 / 13991.3 8.7 8.4
2018-Dec-07 20:00N 54°24' E 010°12'0 0.0 210 / 18990.2 10.2 8.3
2018-Dec-07 19:00N 54°24' E 010°12'0 0.0 210 / 19991.1 10.4 8.3
2018-Dec-07 18:00N 54°24' E 010°12'0 0.0 200 / 19992.0 10.4 8.4
2018-Dec-07 17:00N 54°24' E 010°12'0 0.0 210 / 18993.1 10.7 8.4
2018-Dec-07 16:00N 54°24' E 010°12'0 0.0 210 / 17994.3 10.9 8.4
2018-Dec-07 15:00N 54°24' E 010°12'0 0.0 220 / 17995.5 11.4 8.5
2018-Dec-07 14:00N 54°24' E 010°12'0 0.0 220 / 14996.5 10.9 8.6
2018-Dec-07 13:00N 54°24' E 010°12'0 0.0 220 / 14997.7 10.9 8.7
2018-Dec-07 12:00N 54°24' E 010°12'0 0.0 210 / 13998.9 10.7 8.7
2018-Dec-07 11:00N 54°24' E 010°12'0 0.0 220 / 131000.4 11.2 8.6
2018-Dec-07 10:00N 54°24' E 010°12'0 0.0 220 / 141001.7 11.0 8.5
2018-Dec-07 09:00N 54°24' E 010°12'0 0.0 220 / 101002.7 10.5 8.4
2018-Dec-07 08:00N 54°24' E 010°12'0 0.0 220 / 91003.5 10.4 8.4
2018-Dec-07 07:00N 54°24' E 010°12'0 0.0 230 / 81004.5 10.0 8.4
2018-Dec-07 06:00N 54°24' E 010°12'0 0.0 240 / 71005.0 9.7 8.4
2018-Dec-07 05:00N 54°24' E 010°12'0 0.0 240 / 91005.5 9.7 8.4
2018-Dec-07 04:00N 54°24' E 010°12'0 0.0 250 / 101006.0 9.9 8.3
2018-Dec-07 03:00N 54°24' E 010°12'0 0.0 240 / 121006.0 10.0 8.3
2018-Dec-07 02:00N 54°24' E 010°12'0 0.0 240 / 141006.3 10.0 8.3
2018-Dec-07 01:00N 54°24' E 010°12'0 0.0 250 / 141006.4 10.4 8.2
2018-Dec-07 00:00N 54°24' E 010°12'0 0.0 240 / 141006.7 10.4 8.2
2018-Dec-06 23:00N 54°24' E 010°12'0 0.0 230 / 141007.1 10.2 8.2
2018-Dec-06 22:00N 54°24' E 010°12'0 0.0 230 / 141007.8 9.9 8.2
2018-Dec-06 21:00N 54°24' E 010°12'0 0.0 230 / 171008.2 10.2 8.2
2018-Dec-06 20:00N 54°24' E 010°12'0 0.0 230 / 151008.9 10.2 8.2
2018-Dec-06 19:00N 54°24' E 010°12'0 0.0 230 / 141009.4 10.2 8.1
2018-Dec-06 18:00N 54°24' E 010°12'0 0.0 240 / 111010.0 9.7 8.1
2018-Dec-06 17:00N 54°24' E 010°12'0 0.0 240 / 121010.2 9.7 8.1
2018-Dec-06 16:00N 54°24' E 010°12'0 0.0 230 / 121010.5 9.0 8.0
2018-Dec-06 15:00N 54°24' E 010°12'0 0.0 220 / 101010.6 8.2 8.0
2018-Dec-06 14:00N 54°24' E 010°12'0 0.0 220 / 101010.9 7.7 7.9
2018-Dec-06 13:00N 54°24' E 010°12'0 0.0 210 / 101011.1 6.9 7.8
2018-Dec-06 12:00N 54°24' E 010°12'0 0.0 200 / 121011.7 6.5 7.8
2018-Dec-06 11:00N 54°24' E 010°12'0 0.0 210 / 81012.0 6.2 7.8
2018-Dec-06 10:00N 54°24' E 010°12'0 0.0 200 / 121012.4 5.7 7.7
2018-Dec-06 09:00N 54°24' E 010°12'0 0.0 210 / 101012.8 5.4 7.6
2018-Dec-06 08:00N 54°24' E 010°12'0 0.0 200 / 121012.6 4.9 7.6
2018-Dec-06 07:00N 54°24' E 010°12'0 0.0 190 / 141012.7 4.7 7.6
2018-Dec-06 06:00N 54°24' E 010°12'0 0.0 180 / 141012.5 4.2 7.6
2018-Dec-06 05:00N 54°24' E 010°12'0 0.0 180 / 141012.7 4.2 7.6
2018-Dec-06 04:00N 54°24' E 010°12'0 0.0 180 / 131013.3 4.4 7.6
2018-Dec-06 03:00N 54°24' E 010°12'0 0.0 180 / 141013.5 4.4 7.6
2018-Dec-06 02:00N 54°24' E 010°12'0 0.0 170 / 121014.3 4.4 7.6
2018-Dec-06 01:00N 54°24' E 010°12'0 0.0 170 / 111015.3 4.0 7.6
2018-Dec-06 00:00N 54°24' E 010°12'0 0.0 170 / 121015.9 4.2 7.7
2018-Dec-05 23:00N 54°24' E 010°12'0 0.0 170 / 131017.1 4.2 7.7
2018-Dec-05 22:00N 54°24' E 010°12'0 0.0 170 / 121017.8 4.4 7.7
2018-Dec-05 21:00N 54°24' E 010°12'0 0.0 160 / 111018.6 3.9 7.7
2018-Dec-05 20:00N 54°24' E 010°12'0 0.0 150 / 101019.7 3.9 7.6
2018-Dec-05 19:00N 54°24' E 010°12'0 0.0 170 / 71020.2 3.7 7.6
2018-Dec-05 18:00N 54°24' E 010°12'0 0.0 160 / 91021.1 3.2 7.6
2018-Dec-05 17:00N 54°24' E 010°12'0 0.0 160 / 81021.7 3.0 7.5
2018-Dec-05 16:00N 54°24' E 010°12'0 0.0 170 / 71022.5 3.7 7.5
2018-Dec-05 15:00N 54°24' E 010°12'0 0.0 180 / 91023.3 3.9 7.4
2018-Dec-05 14:00N 54°24' E 010°12'0 0.0 190 / 121023.7 4.4 7.4
2018-Dec-05 13:00N 54°24' E 010°12'0 0.0 190 / 131024.4 4.4 7.5
2018-Dec-05 12:00N 54°24' E 010°12'0 0.0 190 / 131024.8 4.7 7.5
2018-Dec-05 11:00N 54°24' E 010°12'0 0.0 200 / 101025.3 4.4 7.6
2018-Dec-05 10:00N 54°24' E 010°12'0 0.0 210 / 81025.7 3.9 7.7
2018-Dec-05 09:00N 54°24' E 010°12'0 0.0 230 / 61025.7 3.2 7.9
2018-Dec-05 08:00N 54°24' E 010°12'0 0.0 240 / 51025.5 2.0 7.9
2018-Dec-05 07:00N 54°24' E 010°12'0 0.0 220 / 61025.4 2.2 8.1
2018-Dec-05 06:00N 54°24' E 010°12'0 0.0 230 / 71025.1 2.7 8.1
2018-Dec-05 05:00N 54°24' E 010°12'0 0.0 240 / 81024.8 3.2 8.2
2018-Dec-05 04:00N 54°24' E 010°12'0 0.0 230 / 71024.5 2.9 8.1
2018-Dec-05 03:00N 54°24' E 010°12'0 0.0 230 / 71024.3 3.5 8.0
2018-Dec-05 02:00N 54°24' E 010°12'0 0.0 220 / 61024.4 3.9 7.9
2018-Dec-05 01:00N 54°24' E 010°12'0 0.0 250 / 51024.4 3.5 7.9
2018-Dec-05 00:00N 54°24' E 010°12'0 0.0 260 / 51024.0 2.9 8.0
2018-Dec-04 23:00N 54°24' E 010°12'0 0.0 250 / 61023.7 2.7 8.0
2018-Dec-04 22:00N 54°24' E 010°12'0 0.0 240 / 41023.3 2.9 8.0
2018-Dec-04 21:00N 54°24' E 010°12'0 0.0 230 / 31022.7 3.9 8.0
2018-Dec-04 20:00N 54°24' E 010°12'0 0.0 270 / 61021.8 4.4 8.1
2018-Dec-04 19:00N 54°24' E 010°12'0 0.0 260 / 51021.0 4.2 8.1
2018-Dec-04 18:00N 54°24' E 010°12'0 0.0 260 / 71020.4 4.7 8.1
2018-Dec-04 17:00N 54°24' E 010°12'0 0.0 260 / 71019.7 4.9 8.0
2018-Dec-04 16:00N 54°24' E 010°12'0 0.0 270 / 71019.0 5.5 8.1
2018-Dec-04 15:00N 54°24' E 010°12'0 0.0 270 / 81017.9 6.2 8.1
2018-Dec-04 14:00N 54°24' E 010°12'0 0.0 280 / 101016.8 7.2 8.1
2018-Dec-04 13:00N 54°24' E 010°12'0 0.0 280 / 81015.8 7.0 8.1
2018-Dec-04 12:00N 54°24' E 010°12'0 0.0 280 / 91014.7 7.4 8.2
2018-Dec-04 11:00N 54°24' E 010°12'0 0.0 270 / 101013.8 5.9 8.2
2018-Dec-04 10:00N 54°24' E 010°12'0 0.0 280 / 111012.7 6.0 8.3
2018-Dec-04 09:00N 54°24' E 010°12'0 0.0 270 / 101011.2 5.9 8.3
2018-Dec-04 08:00N 54°24' E 010°12'0 0.0 250 / 71009.8 4.7 8.4
2018-Dec-04 07:00N 54°24' E 010°12'0 0.0 260 / 91008.8 5.2 8.4
2018-Dec-04 06:00N 54°24' E 010°12'0 0.0 260 / 71007.0 5.2 8.4
2018-Dec-04 05:00N 54°24' E 010°12'0 0.0 260 / 81005.9 5.7 8.4
2018-Dec-04 04:00N 54°24' E 010°12'0 0.0 260 / 91004.7 6.0 8.3
2018-Dec-04 03:00N 54°24' E 010°12'0 0.0 270 / 91003.4 6.7 8.3
2018-Dec-04 02:00N 54°24' E 010°12'0 0.0 290 / 91002.1 7.2 8.3
2018-Dec-04 01:00N 54°24' E 010°12'0 0.0 280 / 91000.5 7.2 8.3
2018-Dec-04 00:00N 54°24' E 010°12'0 0.0 260 / 9999.3 7.4 8.3
2018-Dec-03 23:00N 54°24' E 010°12'0 0.0 250 / 7998.3 6.9 8.3
2018-Dec-03 22:00N 54°24' E 010°12'0 0.0 260 / 10997.6 7.2 8.4
2018-Dec-03 21:00N 54°24' E 010°12'0 0.0 260 / 11996.9 9.2 8.4
2018-Dec-03 20:00N 54°24' E 010°12'0 0.0 240 / 9996.3 9.7 8.4
2018-Dec-03 19:00N 54°24' E 010°12'0 0.0 240 / 10996.1 10.0 8.3
2018-Dec-03 18:00N 54°24' E 010°12'0 0.0 240 / 11995.9 10.0 8.3
2018-Dec-03 17:00N 54°24' E 010°12'0 0.0 240 / 14995.4 10.2 8.2
2018-Dec-03 16:00N 54°24' E 010°12'0 0.0 250 / 12995.1 10.4 8.2
2018-Dec-03 15:00N 54°24' E 010°12'0 0.0 240 / 16994.8 10.7 8.2
2018-Dec-03 14:00N 54°24' E 010°12'0 0.0 240 / 15994.6 11.2 8.2
2018-Dec-03 13:00N 54°24' E 010°12'0 0.0 240 / 14994.5 11.4 8.2
2018-Dec-03 12:00N 54°24' E 010°12'0 0.0 240 / 13994.7 11.0 8.2
2018-Dec-03 11:00N 54°24' E 010°12'0 0.0 240 / 15994.5 11.0 8.2
2018-Dec-03 10:00N 54°24' E 010°12'0 0.0 240 / 13994.6 11.4 8.2
2018-Dec-03 09:00N 54°24' E 010°12'0 0.0 250 / 14994.4 11.4 8.3
2018-Dec-03 08:00N 54°24' E 010°12'0 0.0 250 / 13994.1 11.4 8.3
2018-Dec-03 07:00N 54°24' E 010°12'0 0.0 230 / 11993.6 11.5 8.3
2018-Dec-03 06:00N 54°24' E 010°12'0 0.0 210 / 10993.7 11.0 8.3
2018-Dec-03 05:00N 54°24' E 010°12'0 0.0 210 / 11994.1 10.2 8.4
2018-Dec-03 04:00N 54°24' E 010°12'0 0.0 220 / 9994.4 10.9 8.4
2018-Dec-03 03:00N 54°24' E 010°12'0 0.0 220 / 11994.7 10.9 8.3
2018-Dec-03 02:00N 54°24' E 010°12'0 0.0 230 / 10995.1 10.9 8.3
2018-Dec-03 01:00N 54°24' E 010°12'0 0.0 240 / 10995.0 10.9 8.2
2018-Dec-03 00:00N 54°24' E 010°12'0 0.0 230 / 8995.1 10.2 8.2
2018-Dec-02 23:00N 54°24' E 010°12'0 0.0 200 / 10995.5 8.5 8.2
2018-Dec-02 22:00N 54°24' E 010°12'0 0.0 210 / 8995.6 8.7 8.2
2018-Dec-02 21:00N 54°24' E 010°12'0 0.0 230 / 8995.7 9.2 8.3
2018-Dec-02 20:00N 54°24' E 010°12'0 0.0 240 / 9995.5 9.2 8.3
2018-Dec-02 19:00N 54°24' E 010°12'0 0.0 240 / 12995.2 9.4 8.3
2018-Dec-02 18:00N 54°24' E 010°12'0 0.0 240 / 11994.7 9.4 8.2
2018-Dec-02 17:00N 54°24' E 010°12'0 0.0 240 / 15994.3 9.7 8.2
2018-Dec-02 16:00N 54°24' E 010°12'0 0.0 200 / 12993.9 8.5 8.2
2018-Dec-02 15:00N 54°24' E 010°12'0 0.0 190 / 12994.2 8.2 8.2
2018-Dec-02 14:00N 54°24' E 010°12'0 0.0 190 / 12994.4 8.2 8.1
2018-Dec-02 13:00N 54°24' E 010°12'0 0.0 180 / 12994.8 8.4 8.1
2018-Dec-02 12:00N 54°24' E 010°12'0 0.0 180 / 12995.6 8.0 8.1
2018-Dec-02 11:00N 54°24' E 010°12'0 0.0 180 / 14996.3 7.9 8.1
2018-Dec-02 10:00N 54°24' E 010°12'0 0.0 180 / 13997.1 7.9 8.1
2018-Dec-02 09:00N 54°24' E 010°12'0 0.0 180 / 14997.7 7.7 8.0
2018-Dec-02 08:00N 54°24' E 010°12'0 0.0 180 / 13998.2 7.4 8.0
2018-Dec-02 07:00N 54°24' E 010°12'0 0.0 180 / 15998.6 7.4 7.9
2018-Dec-02 06:00N 54°24' E 010°12'0 0.0 180 / 13998.8 7.4 7.9
2018-Dec-02 05:00N 54°24' E 010°12'0 0.0 180 / 141000.0 7.2 7.9
2018-Dec-02 04:00N 54°24' E 010°12'0 0.0 170 / 141000.6 7.0 7.8
2018-Dec-02 03:00N 54°24' E 010°12'0 0.0 180 / 161001.6 7.2 7.8
2018-Dec-02 02:00N 54°24' E 010°12'0 0.0 180 / 161002.6 7.2 7.8
2018-Dec-02 01:00N 54°24' E 010°12'0 0.0 180 / 151003.4 7.0 7.9
2018-Dec-02 00:00N 54°24' E 010°12'0 0.0 180 / 161004.3 6.9 7.9
2018-Dec-01 23:00N 54°24' E 010°12'0 0.0 170 / 131005.3 7.4 8.0
2018-Dec-01 22:00N 54°24' E 010°12'0 0.0 170 / 101006.0 7.2 8.0
2018-Dec-01 21:00N 54°24' E 010°12'0 0.0 190 / 131006.7 7.4 8.1
2018-Dec-01 20:00N 54°24' E 010°12'0 0.0 190 / 131007.8 7.5 8.1
2018-Dec-01 19:00N 54°24' E 010°12'0 0.0 190 / 111008.5 7.4 8.1
2018-Dec-01 18:00N 54°24' E 010°12'0 0.0 190 / 101008.7 7.4 8.0
2018-Dec-01 17:00N 54°24' E 010°12'0 0.0 180 / 111009.0 7.4 8.0
2018-Dec-01 16:00N 54°24' E 010°12'0 0.0 200 / 131009.4 7.7 8.0
2018-Dec-01 15:00N 54°24' E 010°12'0 0.0 220 / 101009.9 8.0 8.0
2018-Dec-01 14:00N 54°24' E 010°12'0 0.0 210 / 111010.2 7.9 8.0
2018-Dec-01 13:00N 54°24' E 010°12'0 0.0 210 / 111010.0 7.5 7.9
2018-Dec-01 12:00N 54°24' E 010°12'0 0.0 220 / 111010.4 7.7 7.9
2018-Dec-01 11:00N 54°24' E 010°12'0 0.0 200 / 131010.6 7.4 7.9
2018-Dec-01 10:00N 54°24' E 010°12'0 0.0 220 / 111011.0 6.9 7.8
2018-Dec-01 09:00N 54°24' E 010°12'0 0.0 210 / 151010.7 6.2 7.8
2018-Dec-01 08:00N 54°24' E 010°12'0 0.0 220 / 111010.7 5.9 7.9
2018-Dec-01 07:00N 54°24' E 010°12'0 0.0 210 / 121010.5 6.0 7.9
2018-Dec-01 06:00N 54°24' E 010°12'0 0.0 220 / 121010.4 6.2 7.9
2018-Dec-01 05:00N 54°24' E 010°12'0 0.0 220 / 111010.4 6.5 7.9
2018-Dec-01 04:00N 54°24' E 010°12'0 0.0 210 / 111010.2 6.4 7.9
2018-Dec-01 03:00N 54°24' E 010°12'0 0.0 210 / 121010.1 6.4 7.9
2018-Dec-01 02:00N 54°24' E 010°12'0 0.0 200 / 121010.3 6.7 7.9
2018-Dec-01 01:00N 54°24' E 010°12'0 0.0 200 / 111010.5 6.9 7.9
2018-Dec-01 00:00N 54°24' E 010°12'0 0.0 190 / 121010.5 6.7 7.8
2018-Nov-30 23:00N 54°24' E 010°12'0 0.0 190 / 131010.8 6.2 7.8
2018-Nov-30 22:00N 54°24' E 010°12'0 0.0 190 / 131010.6 6.5 7.8
2018-Nov-30 21:00N 54°24' E 010°12'0 0.0 190 / 141010.7 6.5 7.8
2018-Nov-30 20:00N 54°24' E 010°12'   180 / 121010.6 6.7 7.8
Track history (hours):
 
Tides and Currents Weather Stations Pressure Air Temp Water Temp Dewpoint Dewpoint Depression Visibility Wind Speed Wind Dir Waves Ship Positions

Oceanographic research ship Alkor (Germany)

Ship's website: http://www.briese.de/

Detailed information on ship capabilities available from University of Delaware's Ocean Information Center.

Last reported at 2018-Dec-10 20:00 UTC. Time now 2018-Dec-10 20:51 UTC.
Position N 54°24' E 010°12'.

Length 55 m; draft 4.2 m.

Type: Ship. MMSI: 211216512.

Wind from 300 at 8 knots

Barometer 1010.7 mb
Air temperature 4.9 ° C
Water temperature 8.2 ° C

Date/timePositionNaut miles runAvg speedWind from/ knotsBaromVisibWave heightAir tempDewpointWater temp
2018-Dec-10 20:00N 54°24' E 010°12'0 0.0 300 / 81010.7 4.9 8.2
2018-Dec-10 19:00N 54°24' E 010°12'0 0.0 300 / 71010.1 5.2 8.3
2018-Dec-10 18:00N 54°24' E 010°12'0 0.0 300 / 91009.5 5.4 8.3
2018-Dec-10 17:00N 54°24' E 010°12'0 0.0 290 / 111009.1 5.5 8.3
2018-Dec-10 16:00N 54°24' E 010°12'0 0.0 290 / 111008.7 6.0 8.3
2018-Dec-10 15:00N 54°24' E 010°12'0 0.0 280 / 121008.5 6.2 8.3
2018-Dec-10 14:00N 54°24' E 010°12'0 0.0 270 / 101008.2 5.7 8.4
2018-Dec-10 13:00N 54°24' E 010°12'0 0.0 280 / 111008.2 5.7 8.3
2018-Dec-10 12:00N 54°24' E 010°12'0 0.0 280 / 111008.3 5.2 8.4
2018-Dec-10 11:00N 54°24' E 010°12'0 0.0 280 / 111008.7 6.4 8.4
2018-Dec-10 10:00N 54°24' E 010°12'0 0.0 270 / 131008.9 5.4 8.4
2018-Dec-10 09:00N 54°24' E 010°12'0 0.0 270 / 101008.7 4.9 8.4
2018-Dec-10 08:00N 54°24' E 010°12'0 0.0 290 / 101008.3 4.7 8.4
2018-Dec-10 07:00N 54°24' E 010°12'0 0.0 280 / 131007.6 5.2 8.4
2018-Dec-10 06:00N 54°24' E 010°12'0 0.0 270 / 101007.0 4.9 8.5
2018-Dec-10 05:00N 54°24' E 010°12'0 0.0 280 / 111006.7 5.0 8.5
2018-Dec-10 04:00N 54°24' E 010°12'0 0.0 280 / 101005.8 5.0 8.5
2018-Dec-10 03:00N 54°24' E 010°12'0 0.0 260 / 101005.4 4.7 8.5
2018-Dec-10 02:00N 54°24' E 010°12'0 0.0 290 / 91005.0 5.4 8.6
2018-Dec-10 01:00N 54°24' E 010°12'0 0.0 280 / 111004.0 5.7 8.6
2018-Dec-10 00:00N 54°24' E 010°12'0 0.0 290 / 101003.3 5.7 8.6
2018-Dec-09 23:00N 54°24' E 010°12'0 0.0 280 / 111002.4 5.7 8.6
2018-Dec-09 22:00N 54°24' E 010°12'0 0.0 290 / 101001.6 5.9 8.7
2018-Dec-09 21:00N 54°24' E 010°12'0 0.0 280 / 101000.5 6.2 8.7
2018-Dec-09 20:00N 54°24' E 010°12'0 0.0 290 / 9999.3 6.2 8.7
2018-Dec-09 19:00N 54°24' E 010°12'0 0.0 290 / 9997.7 6.7 8.7
2018-Dec-09 18:00N 54°24' E 010°12'0 0.0 300 / 13995.8 7.2 8.7
2018-Dec-09 17:00N 54°24' E 010°12'0 0.0 290 / 13994.1 7.2 8.8
2018-Dec-09 16:00N 54°24' E 010°12'0 0.0 290 / 12992.8 7.5 8.8
2018-Dec-09 15:00N 54°24' E 010°12'0 0.0 280 / 12991.7 7.5 8.8
2018-Dec-09 14:00N 54°24' E 010°12'0 0.0 280 / 10990.5 7.4 8.8
2018-Dec-09 13:00N 54°24' E 010°12'0 0.0 260 / 12989.3 7.4 8.8
2018-Dec-09 12:00N 54°24' E 010°12'0 0.0 260 / 12988.7 7.4 8.7
2018-Dec-09 11:00N 54°24' E 010°12'0 0.0 250 / 12988.3 8.2 8.7
2018-Dec-09 10:00N 54°24' E 010°12'0 0.0 250 / 10988.1 6.7 8.7
2018-Dec-09 09:00N 54°24' E 010°12'0 0.0 250 / 9987.4 6.9 8.7
2018-Dec-09 08:00N 54°24' E 010°12'0 0.0 250 / 10986.5 6.9 8.7
2018-Dec-09 07:00N 54°24' E 010°12'0 0.0 240 / 10985.6 6.7 8.6
2018-Dec-09 06:00N 54°24' E 010°12'0 0.0 250 / 12984.8 6.7 8.6
2018-Dec-09 05:00N 54°24' E 010°12'0 0.0 250 / 11984.4 6.9 8.6
2018-Dec-09 04:00N 54°24' E 010°12'0 0.0 250 / 11984.1 7.0 8.5
2018-Dec-09 03:00N 54°24' E 010°12'0 0.0 250 / 10983.7 7.0 8.4
2018-Dec-09 02:00N 54°24' E 010°12'0 0.0 250 / 8983.8 6.7 8.4
2018-Dec-09 01:00N 54°24' E 010°12'0 0.0 220 / 12983.8 6.9 8.2
2018-Dec-08 23:00N 54°24' E 010°12'0 0.0 220 / 17985.5 7.7 8.1
2018-Dec-08 22:00N 54°24' E 010°12'0 0.0 220 / 17986.5 7.5 8.1
2018-Dec-08 21:00N 54°24' E 010°12'0 0.0 240 / 17987.5 7.9 8.1
2018-Dec-08 20:00N 54°24' E 010°12'0 0.0 240 / 21988.3 7.7 8.1
2018-Dec-08 19:00N 54°24' E 010°12'0 0.0 240 / 24988.8 8.2 8.1
2018-Dec-08 18:00N 54°24' E 010°12'0 0.0 240 / 19989.1 7.9 8.1
2018-Dec-08 17:00N 54°24' E 010°12'0 0.0 240 / 21989.0 8.2 8.1
2018-Dec-08 16:00N 54°24' E 010°12'0 0.0 240 / 22989.2 8.7 8.1
2018-Dec-08 15:00N 54°24' E 010°12'0 0.0 240 / 23989.2 8.4 8.1
2018-Dec-08 14:00N 54°24' E 010°12'0 0.0 240 / 20989.6 8.4 8.1
2018-Dec-08 13:00N 54°24' E 010°12'0 0.0 230 / 19989.7 8.0 8.0
2018-Dec-08 12:00N 54°24' E 010°12'0 0.0 230 / 21990.1 7.9 8.0
2018-Dec-08 11:00N 54°24' E 010°12'0 0.0 220 / 21990.6 7.0 8.0
2018-Dec-08 10:00N 54°24' E 010°12'0 0.0 230 / 22991.4 7.4 8.0
2018-Dec-08 09:00N 54°24' E 010°12'0 0.0 230 / 19992.2 7.4 8.0
2018-Dec-08 08:00N 54°24' E 010°12'0 0.0 220 / 20992.8 6.7 8.0
2018-Dec-08 07:00N 54°24' E 010°12'0 0.0 220 / 20993.3 6.2 8.0
2018-Dec-08 06:00N 54°24' E 010°12'0 0.0 220 / 20993.5 5.9 8.2
2018-Dec-08 05:00N 54°24' E 010°12'0 0.0 220 / 18994.6 5.7 8.3
2018-Dec-08 04:00N 54°24' E 010°12'0 0.0 230 / 17995.0 5.9 8.5
2018-Dec-08 03:00N 54°24' E 010°12'0 0.0 230 / 17995.4 6.2 8.5
2018-Dec-08 02:00N 54°24' E 010°12'0 0.0 250 / 19995.5 6.2 8.6
2018-Dec-08 01:00N 54°24' E 010°12'0 0.0 240 / 14994.7 7.4 8.6
2018-Dec-08 00:00N 54°24' E 010°12'0 0.0 240 / 12994.2 7.0 8.6
2018-Dec-07 23:00N 54°24' E 010°12'0 0.0 250 / 15993.5 7.4 8.6
2018-Dec-07 22:00N 54°24' E 010°12'0 0.0 260 / 14992.7 7.4 8.5
2018-Dec-07 21:00N 54°24' E 010°12'0 0.0 270 / 13991.3 8.7 8.4
2018-Dec-07 20:00N 54°24' E 010°12'0 0.0 210 / 18990.2 10.2 8.3
2018-Dec-07 19:00N 54°24' E 010°12'0 0.0 210 / 19991.1 10.4 8.3
2018-Dec-07 18:00N 54°24' E 010°12'0 0.0 200 / 19992.0 10.4 8.4
2018-Dec-07 17:00N 54°24' E 010°12'0 0.0 210 / 18993.1 10.7 8.4
2018-Dec-07 16:00N 54°24' E 010°12'0 0.0 210 / 17994.3 10.9 8.4
2018-Dec-07 15:00N 54°24' E 010°12'0 0.0 220 / 17995.5 11.4 8.5
2018-Dec-07 14:00N 54°24' E 010°12'0 0.0 220 / 14996.5 10.9 8.6
2018-Dec-07 13:00N 54°24' E 010°12'0 0.0 220 / 14997.7 10.9 8.7
2018-Dec-07 12:00N 54°24' E 010°12'0 0.0 210 / 13998.9 10.7 8.7
2018-Dec-07 11:00N 54°24' E 010°12'0 0.0 220 / 131000.4 11.2 8.6
2018-Dec-07 10:00N 54°24' E 010°12'0 0.0 220 / 141001.7 11.0 8.5
2018-Dec-07 09:00N 54°24' E 010°12'0 0.0 220 / 101002.7 10.5 8.4
2018-Dec-07 08:00N 54°24' E 010°12'0 0.0 220 / 91003.5 10.4 8.4
2018-Dec-07 07:00N 54°24' E 010°12'0 0.0 230 / 81004.5 10.0 8.4
2018-Dec-07 06:00N 54°24' E 010°12'0 0.0 240 / 71005.0 9.7 8.4
2018-Dec-07 05:00N 54°24' E 010°12'0 0.0 240 / 91005.5 9.7 8.4
2018-Dec-07 04:00N 54°24' E 010°12'0 0.0 250 / 101006.0 9.9 8.3
2018-Dec-07 03:00N 54°24' E 010°12'0 0.0 240 / 121006.0 10.0 8.3
2018-Dec-07 02:00N 54°24' E 010°12'0 0.0 240 / 141006.3 10.0 8.3
2018-Dec-07 01:00N 54°24' E 010°12'0 0.0 250 / 141006.4 10.4 8.2
2018-Dec-07 00:00N 54°24' E 010°12'0 0.0 240 / 141006.7 10.4 8.2
2018-Dec-06 23:00N 54°24' E 010°12'0 0.0 230 / 141007.1 10.2 8.2
2018-Dec-06 22:00N 54°24' E 010°12'0 0.0 230 / 141007.8 9.9 8.2
2018-Dec-06 21:00N 54°24' E 010°12'0 0.0 230 / 171008.2 10.2 8.2
2018-Dec-06 20:00N 54°24' E 010°12'0 0.0 230 / 151008.9 10.2 8.2
2018-Dec-06 19:00N 54°24' E 010°12'0 0.0 230 / 141009.4 10.2 8.1
2018-Dec-06 18:00N 54°24' E 010°12'0 0.0 240 / 111010.0 9.7 8.1
2018-Dec-06 17:00N 54°24' E 010°12'0 0.0 240 / 121010.2 9.7 8.1
2018-Dec-06 16:00N 54°24' E 010°12'0 0.0 230 / 121010.5 9.0 8.0
2018-Dec-06 15:00N 54°24' E 010°12'0 0.0 220 / 101010.6 8.2 8.0
2018-Dec-06 14:00N 54°24' E 010°12'0 0.0 220 / 101010.9 7.7 7.9
2018-Dec-06 13:00N 54°24' E 010°12'0 0.0 210 / 101011.1 6.9 7.8
2018-Dec-06 12:00N 54°24' E 010°12'0 0.0 200 / 121011.7 6.5 7.8
2018-Dec-06 11:00N 54°24' E 010°12'0 0.0 210 / 81012.0 6.2 7.8
2018-Dec-06 10:00N 54°24' E 010°12'0 0.0 200 / 121012.4 5.7 7.7
2018-Dec-06 09:00N 54°24' E 010°12'0 0.0 210 / 101012.8 5.4 7.6
2018-Dec-06 08:00N 54°24' E 010°12'0 0.0 200 / 121012.6 4.9 7.6
2018-Dec-06 07:00N 54°24' E 010°12'0 0.0 190 / 141012.7 4.7 7.6
2018-Dec-06 06:00N 54°24' E 010°12'0 0.0 180 / 141012.5 4.2 7.6
2018-Dec-06 05:00N 54°24' E 010°12'0 0.0 180 / 141012.7 4.2 7.6
2018-Dec-06 04:00N 54°24' E 010°12'0 0.0 180 / 131013.3 4.4 7.6
2018-Dec-06 03:00N 54°24' E 010°12'0 0.0 180 / 141013.5 4.4 7.6
2018-Dec-06 02:00N 54°24' E 010°12'0 0.0 170 / 121014.3 4.4 7.6
2018-Dec-06 01:00N 54°24' E 010°12'0 0.0 170 / 111015.3 4.0 7.6
2018-Dec-06 00:00N 54°24' E 010°12'0 0.0 170 / 121015.9 4.2 7.7
2018-Dec-05 23:00N 54°24' E 010°12'0 0.0 170 / 131017.1 4.2 7.7
2018-Dec-05 22:00N 54°24' E 010°12'0 0.0 170 / 121017.8 4.4 7.7
2018-Dec-05 21:00N 54°24' E 010°12'0 0.0 160 / 111018.6 3.9 7.7
2018-Dec-05 20:00N 54°24' E 010°12'0 0.0 150 / 101019.7 3.9 7.6
2018-Dec-05 19:00N 54°24' E 010°12'0 0.0 170 / 71020.2 3.7 7.6
2018-Dec-05 18:00N 54°24' E 010°12'0 0.0 160 / 91021.1 3.2 7.6
2018-Dec-05 17:00N 54°24' E 010°12'0 0.0 160 / 81021.7 3.0 7.5
2018-Dec-05 16:00N 54°24' E 010°12'0 0.0 170 / 71022.5 3.7 7.5
2018-Dec-05 15:00N 54°24' E 010°12'0 0.0 180 / 91023.3 3.9 7.4
2018-Dec-05 14:00N 54°24' E 010°12'0 0.0 190 / 121023.7 4.4 7.4
2018-Dec-05 13:00N 54°24' E 010°12'0 0.0 190 / 131024.4 4.4 7.5
2018-Dec-05 12:00N 54°24' E 010°12'0 0.0 190 / 131024.8 4.7 7.5
2018-Dec-05 11:00N 54°24' E 010°12'0 0.0 200 / 101025.3 4.4 7.6
2018-Dec-05 10:00N 54°24' E 010°12'0 0.0 210 / 81025.7 3.9 7.7
2018-Dec-05 09:00N 54°24' E 010°12'0 0.0 230 / 61025.7 3.2 7.9
2018-Dec-05 08:00N 54°24' E 010°12'0 0.0 240 / 51025.5 2.0 7.9
2018-Dec-05 07:00N 54°24' E 010°12'0 0.0 220 / 61025.4 2.2 8.1
2018-Dec-05 06:00N 54°24' E 010°12'0 0.0 230 / 71025.1 2.7 8.1
2018-Dec-05 05:00N 54°24' E 010°12'0 0.0 240 / 81024.8 3.2 8.2
2018-Dec-05 04:00N 54°24' E 010°12'0 0.0 230 / 71024.5 2.9 8.1
2018-Dec-05 03:00N 54°24' E 010°12'0 0.0 230 / 71024.3 3.5 8.0
2018-Dec-05 02:00N 54°24' E 010°12'0 0.0 220 / 61024.4 3.9 7.9
2018-Dec-05 01:00N 54°24' E 010°12'0 0.0 250 / 51024.4 3.5 7.9
2018-Dec-05 00:00N 54°24' E 010°12'0 0.0 260 / 51024.0 2.9 8.0
2018-Dec-04 23:00N 54°24' E 010°12'0 0.0 250 / 61023.7 2.7 8.0
2018-Dec-04 22:00N 54°24' E 010°12'0 0.0 240 / 41023.3 2.9 8.0
2018-Dec-04 21:00N 54°24' E 010°12'0 0.0 230 / 31022.7 3.9 8.0
2018-Dec-04 20:00N 54°24' E 010°12'0 0.0 270 / 61021.8 4.4 8.1
2018-Dec-04 19:00N 54°24' E 010°12'0 0.0 260 / 51021.0 4.2 8.1
2018-Dec-04 18:00N 54°24' E 010°12'0 0.0 260 / 71020.4 4.7 8.1
2018-Dec-04 17:00N 54°24' E 010°12'0 0.0 260 / 71019.7 4.9 8.0
2018-Dec-04 16:00N 54°24' E 010°12'0 0.0 270 / 71019.0 5.5 8.1
2018-Dec-04 15:00N 54°24' E 010°12'0 0.0 270 / 81017.9 6.2 8.1
2018-Dec-04 14:00N 54°24' E 010°12'0 0.0 280 / 101016.8 7.2 8.1
2018-Dec-04 13:00N 54°24' E 010°12'0 0.0 280 / 81015.8 7.0 8.1
2018-Dec-04 12:00N 54°24' E 010°12'0 0.0 280 / 91014.7 7.4 8.2
2018-Dec-04 11:00N 54°24' E 010°12'0 0.0 270 / 101013.8 5.9 8.2
2018-Dec-04 10:00N 54°24' E 010°12'0 0.0 280 / 111012.7 6.0 8.3
2018-Dec-04 09:00N 54°24' E 010°12'0 0.0 270 / 101011.2 5.9 8.3
2018-Dec-04 08:00N 54°24' E 010°12'0 0.0 250 / 71009.8 4.7 8.4
2018-Dec-04 07:00N 54°24' E 010°12'0 0.0 260 / 91008.8 5.2 8.4
2018-Dec-04 06:00N 54°24' E 010°12'0 0.0 260 / 71007.0 5.2 8.4
2018-Dec-04 05:00N 54°24' E 010°12'0 0.0 260 / 81005.9 5.7 8.4
2018-Dec-04 04:00N 54°24' E 010°12'0 0.0 260 / 91004.7 6.0 8.3
2018-Dec-04 03:00N 54°24' E 010°12'0 0.0 270 / 91003.4 6.7 8.3
2018-Dec-04 02:00N 54°24' E 010°12'0 0.0 290 / 91002.1 7.2 8.3
2018-Dec-04 01:00N 54°24' E 010°12'0 0.0 280 / 91000.5 7.2 8.3
2018-Dec-04 00:00N 54°24' E 010°12'0 0.0 260 / 9999.3 7.4 8.3
2018-Dec-03 23:00N 54°24' E 010°12'0 0.0 250 / 7998.3 6.9 8.3
2018-Dec-03 22:00N 54°24' E 010°12'0 0.0 260 / 10997.6 7.2 8.4
2018-Dec-03 21:00N 54°24' E 010°12'0 0.0 260 / 11996.9 9.2 8.4
2018-Dec-03 20:00N 54°24' E 010°12'0 0.0 240 / 9996.3 9.7 8.4
2018-Dec-03 19:00N 54°24' E 010°12'0 0.0 240 / 10996.1 10.0 8.3
2018-Dec-03 18:00N 54°24' E 010°12'0 0.0 240 / 11995.9 10.0 8.3
2018-Dec-03 17:00N 54°24' E 010°12'0 0.0 240 / 14995.4 10.2 8.2
2018-Dec-03 16:00N 54°24' E 010°12'0 0.0 250 / 12995.1 10.4 8.2
2018-Dec-03 15:00N 54°24' E 010°12'0 0.0 240 / 16994.8 10.7 8.2
2018-Dec-03 14:00N 54°24' E 010°12'0 0.0 240 / 15994.6 11.2 8.2
2018-Dec-03 13:00N 54°24' E 010°12'0 0.0 240 / 14994.5 11.4 8.2
2018-Dec-03 12:00N 54°24' E 010°12'0 0.0 240 / 13994.7 11.0 8.2
2018-Dec-03 11:00N 54°24' E 010°12'0 0.0 240 / 15994.5 11.0 8.2
2018-Dec-03 10:00N 54°24' E 010°12'0 0.0 240 / 13994.6 11.4 8.2
2018-Dec-03 09:00N 54°24' E 010°12'0 0.0 250 / 14994.4 11.4 8.3
2018-Dec-03 08:00N 54°24' E 010°12'0 0.0 250 / 13994.1 11.4 8.3
2018-Dec-03 07:00N 54°24' E 010°12'0 0.0 230 / 11993.6 11.5 8.3
2018-Dec-03 06:00N 54°24' E 010°12'0 0.0 210 / 10993.7 11.0 8.3
2018-Dec-03 05:00N 54°24' E 010°12'0 0.0 210 / 11994.1 10.2 8.4
2018-Dec-03 04:00N 54°24' E 010°12'0 0.0 220 / 9994.4 10.9 8.4
2018-Dec-03 03:00N 54°24' E 010°12'0 0.0 220 / 11994.7 10.9 8.3
2018-Dec-03 02:00N 54°24' E 010°12'0 0.0 230 / 10995.1 10.9 8.3
2018-Dec-03 01:00N 54°24' E 010°12'0 0.0 240 / 10995.0 10.9 8.2
2018-Dec-03 00:00N 54°24' E 010°12'0 0.0 230 / 8995.1 10.2 8.2
2018-Dec-02 23:00N 54°24' E 010°12'0 0.0 200 / 10995.5 8.5 8.2
2018-Dec-02 22:00N 54°24' E 010°12'0 0.0 210 / 8995.6 8.7 8.2
2018-Dec-02 21:00N 54°24' E 010°12'0 0.0 230 / 8995.7 9.2 8.3
2018-Dec-02 20:00N 54°24' E 010°12'0 0.0 240 / 9995.5 9.2 8.3
2018-Dec-02 19:00N 54°24' E 010°12'0 0.0 240 / 12995.2 9.4 8.3
2018-Dec-02 18:00N 54°24' E 010°12'0 0.0 240 / 11994.7 9.4 8.2
2018-Dec-02 17:00N 54°24' E 010°12'0 0.0 240 / 15994.3 9.7 8.2
2018-Dec-02 16:00N 54°24' E 010°12'0 0.0 200 / 12993.9 8.5 8.2
2018-Dec-02 15:00N 54°24' E 010°12'0 0.0 190 / 12994.2 8.2 8.2
2018-Dec-02 14:00N 54°24' E 010°12'0 0.0 190 / 12994.4 8.2 8.1
2018-Dec-02 13:00N 54°24' E 010°12'0 0.0 180 / 12994.8 8.4 8.1
2018-Dec-02 12:00N 54°24' E 010°12'0 0.0 180 / 12995.6 8.0 8.1
2018-Dec-02 11:00N 54°24' E 010°12'0 0.0 180 / 14996.3 7.9 8.1
2018-Dec-02 10:00N 54°24' E 010°12'0 0.0 180 / 13997.1 7.9 8.1
2018-Dec-02 09:00N 54°24' E 010°12'0 0.0 180 / 14997.7 7.7 8.0
2018-Dec-02 08:00N 54°24' E 010°12'0 0.0 180 / 13998.2 7.4 8.0
2018-Dec-02 07:00N 54°24' E 010°12'0 0.0 180 / 15998.6 7.4 7.9
2018-Dec-02 06:00N 54°24' E 010°12'0 0.0 180 / 13998.8 7.4 7.9
2018-Dec-02 05:00N 54°24' E 010°12'0 0.0 180 / 141000.0 7.2 7.9
2018-Dec-02 04:00N 54°24' E 010°12'0 0.0 170 / 141000.6 7.0 7.8
2018-Dec-02 03:00N 54°24' E 010°12'0 0.0 180 / 161001.6 7.2 7.8
2018-Dec-02 02:00N 54°24' E 010°12'0 0.0 180 / 161002.6 7.2 7.8
2018-Dec-02 01:00N 54°24' E 010°12'0 0.0 180 / 151003.4 7.0 7.9
2018-Dec-02 00:00N 54°24' E 010°12'0 0.0 180 / 161004.3 6.9 7.9
2018-Dec-01 23:00N 54°24' E 010°12'0 0.0 170 / 131005.3 7.4 8.0
2018-Dec-01 22:00N 54°24' E 010°12'0 0.0 170 / 101006.0 7.2 8.0
2018-Dec-01 21:00N 54°24' E 010°12'0 0.0 190 / 131006.7 7.4 8.1
2018-Dec-01 20:00N 54°24' E 010°12'0 0.0 190 / 131007.8 7.5 8.1
2018-Dec-01 19:00N 54°24' E 010°12'0 0.0 190 / 111008.5 7.4 8.1
2018-Dec-01 18:00N 54°24' E 010°12'0 0.0 190 / 101008.7 7.4 8.0
2018-Dec-01 17:00N 54°24' E 010°12'0 0.0 180 / 111009.0 7.4 8.0
2018-Dec-01 16:00N 54°24' E 010°12'0 0.0 200 / 131009.4 7.7 8.0
2018-Dec-01 15:00N 54°24' E 010°12'0 0.0 220 / 101009.9 8.0 8.0
2018-Dec-01 14:00N 54°24' E 010°12'0 0.0 210 / 111010.2 7.9 8.0
2018-Dec-01 13:00N 54°24' E 010°12'0 0.0 210 / 111010.0 7.5 7.9
2018-Dec-01 12:00N 54°24' E 010°12'0 0.0 220 / 111010.4 7.7 7.9
2018-Dec-01 11:00N 54°24' E 010°12'0 0.0 200 / 131010.6 7.4 7.9
2018-Dec-01 10:00N 54°24' E 010°12'0 0.0 220 / 111011.0 6.9 7.8
2018-Dec-01 09:00N 54°24' E 010°12'0 0.0 210 / 151010.7 6.2 7.8
2018-Dec-01 08:00N 54°24' E 010°12'0 0.0 220 / 111010.7 5.9 7.9
2018-Dec-01 07:00N 54°24' E 010°12'0 0.0 210 / 121010.5 6.0 7.9
2018-Dec-01 06:00N 54°24' E 010°12'0 0.0 220 / 121010.4 6.2 7.9
2018-Dec-01 05:00N 54°24' E 010°12'0 0.0 220 / 111010.4 6.5 7.9
2018-Dec-01 04:00N 54°24' E 010°12'0 0.0 210 / 111010.2 6.4 7.9
2018-Dec-01 03:00N 54°24' E 010°12'0 0.0 210 / 121010.1 6.4 7.9
2018-Dec-01 02:00N 54°24' E 010°12'0 0.0 200 / 121010.3 6.7 7.9
2018-Dec-01 01:00N 54°24' E 010°12'0 0.0 200 / 111010.5 6.9 7.9
2018-Dec-01 00:00N 54°24' E 010°12'0 0.0 190 / 121010.5 6.7 7.8
2018-Nov-30 23:00N 54°24' E 010°12'0 0.0 190 / 131010.8 6.2 7.8
2018-Nov-30 22:00N 54°24' E 010°12'0 0.0 190 / 131010.6 6.5 7.8
2018-Nov-30 21:00N 54°24' E 010°12'0 0.0 190 / 141010.7 6.5 7.8
2018-Nov-30 20:00N 54°24' E 010°12'   180 / 121010.6 6.7 7.8

Dump ship's entire track history